sensor_id;sensor_type;location;lat;lon;timestamp;P1;P2;P0
47810;PMS5003;33575;52.600;7.318;2023-07-02T00:01:39;7;7;
47810;PMS5003;33575;52.600;7.318;2023-07-02T00:04:09;8;6;
47810;PMS5003;33575;52.600;7.318;2023-07-02T00:06:40;7;7;
47810;PMS5003;33575;52.600;7.318;2023-07-02T00:09:10;9;8;
47810;PMS5003;33575;52.600;7.318;2023-07-02T00:11:41;7;7;
47810;PMS5003;33575;52.600;7.318;2023-07-02T00:14:11;10;9;
47810;PMS5003;33575;52.600;7.318;2023-07-02T00:16:43;6;6;
47810;PMS5003;33575;52.600;7.318;2023-07-02T00:19:11;9;9;
47810;PMS5003;33575;52.600;7.318;2023-07-02T00:21:41;7;7;
47810;PMS5003;33575;52.600;7.318;2023-07-02T00:24:12;7;7;
47810;PMS5003;33575;52.600;7.318;2023-07-02T00:26:42;6;6;
47810;PMS5003;33575;52.600;7.318;2023-07-02T00:29:12;6;5;
47810;PMS5003;33575;52.600;7.318;2023-07-02T00:31:43;9;9;
47810;PMS5003;33575;52.600;7.318;2023-07-02T00:34:13;9;9;
47810;PMS5003;33575;52.600;7.318;2023-07-02T00:36:43;7;7;
47810;PMS5003;33575;52.600;7.318;2023-07-02T00:39:14;10;9;
47810;PMS5003;33575;52.600;7.318;2023-07-02T00:41:44;7;7;
47810;PMS5003;33575;52.600;7.318;2023-07-02T00:44:14;11;9;
47810;PMS5003;33575;52.600;7.318;2023-07-02T00:46:45;8;8;
47810;PMS5003;33575;52.600;7.318;2023-07-02T00:49:15;7;7;
47810;PMS5003;33575;52.600;7.318;2023-07-02T00:51:45;8;8;
47810;PMS5003;33575;52.600;7.318;2023-07-02T00:54:16;7;7;
47810;PMS5003;33575;52.600;7.318;2023-07-02T00:56:46;7;7;
47810;PMS5003;33575;52.600;7.318;2023-07-02T00:59:16;9;8;
47810;PMS5003;33575;52.600;7.318;2023-07-02T01:01:47;7;7;
47810;PMS5003;33575;52.600;7.318;2023-07-02T01:04:17;10;9;
47810;PMS5003;33575;52.600;7.318;2023-07-02T01:06:47;6;6;
47810;PMS5003;33575;52.600;7.318;2023-07-02T01:09:18;7;7;
47810;PMS5003;33575;52.600;7.318;2023-07-02T01:11:49;7;6;
47810;PMS5003;33575;52.600;7.318;2023-07-02T01:14:18;9;9;
47810;PMS5003;33575;52.600;7.318;2023-07-02T01:16:48;9;8;
47810;PMS5003;33575;52.600;7.318;2023-07-02T01:21:49;9;9;
47810;PMS5003;33575;52.600;7.318;2023-07-02T01:24:19;8;6;
47810;PMS5003;33575;52.600;7.318;2023-07-02T01:26:50;9;8;
47810;PMS5003;33575;52.600;7.318;2023-07-02T01:29:20;9;8;
47810;PMS5003;33575;52.600;7.318;2023-07-02T01:31:50;8;8;
47810;PMS5003;33575;52.600;7.318;2023-07-02T01:34:21;8;6;
47810;PMS5003;33575;52.600;7.318;2023-07-02T01:36:51;7;7;
47810;PMS5003;33575;52.600;7.318;2023-07-02T01:39:21;9;7;
47810;PMS5003;33575;52.600;7.318;2023-07-02T01:41:52;6;6;
47810;PMS5003;33575;52.600;7.318;2023-07-02T01:44:22;8;8;
47810;PMS5003;33575;52.600;7.318;2023-07-02T01:46:53;8;7;
47810;PMS5003;33575;52.600;7.318;2023-07-02T01:49:23;7;6;
47810;PMS5003;33575;52.600;7.318;2023-07-02T01:51:54;9;9;
47810;PMS5003;33575;52.600;7.318;2023-07-02T01:54:25;8;8;
47810;PMS5003;33575;52.600;7.318;2023-07-02T01:56:54;9;9;
47810;PMS5003;33575;52.600;7.318;2023-07-02T01:59:25;9;8;
47810;PMS5003;33575;52.600;7.318;2023-07-02T02:01:55;10;8;
47810;PMS5003;33575;52.600;7.318;2023-07-02T02:04:25;10;10;
47810;PMS5003;33575;52.600;7.318;2023-07-02T02:06:55;8;8;
47810;PMS5003;33575;52.600;7.318;2023-07-02T02:09:25;8;8;
47810;PMS5003;33575;52.600;7.318;2023-07-02T02:11:56;8;7;
47810;PMS5003;33575;52.600;7.318;2023-07-02T02:14:26;9;8;
47810;PMS5003;33575;52.600;7.318;2023-07-02T02:16:56;8;8;
47810;PMS5003;33575;52.600;7.318;2023-07-02T02:19:27;10;10;
47810;PMS5003;33575;52.600;7.318;2023-07-02T02:21:57;10;8;
47810;PMS5003;33575;52.600;7.318;2023-07-02T02:24:28;10;9;
47810;PMS5003;33575;52.600;7.318;2023-07-02T02:26:58;8;7;
47810;PMS5003;33575;52.600;7.318;2023-07-02T02:29:28;8;8;
47810;PMS5003;33575;52.600;7.318;2023-07-02T02:31:58;10;8;
47810;PMS5003;33575;52.600;7.318;2023-07-02T02:34:29;8;8;
47810;PMS5003;33575;52.600;7.318;2023-07-02T02:36:59;11;10;
47810;PMS5003;33575;52.600;7.318;2023-07-02T02:39:29;10;9;
47810;PMS5003;33575;52.600;7.318;2023-07-02T02:42:00;8;7;
47810;PMS5003;33575;52.600;7.318;2023-07-02T02:44:30;8;8;
47810;PMS5003;33575;52.600;7.318;2023-07-02T02:47:01;10;10;
47810;PMS5003;33575;52.600;7.318;2023-07-02T02:49:31;10;8;
47810;PMS5003;33575;52.600;7.318;2023-07-02T02:52:01;12;10;
47810;PMS5003;33575;52.600;7.318;2023-07-02T02:54:32;7;6;
47810;PMS5003;33575;52.600;7.318;2023-07-02T02:57:03;7;7;
47810;PMS5003;33575;52.600;7.318;2023-07-02T02:59:33;12;9;
47810;PMS5003;33575;52.600;7.318;2023-07-02T03:02:03;9;9;
47810;PMS5003;33575;52.600;7.318;2023-07-02T03:04:34;16;14;
47810;PMS5003;33575;52.600;7.318;2023-07-02T03:07:04;11;10;
47810;PMS5003;33575;52.600;7.318;2023-07-02T03:09:35;10;9;
47810;PMS5003;33575;52.600;7.318;2023-07-02T03:12:05;13;11;
47810;PMS5003;33575;52.600;7.318;2023-07-02T03:14:35;13;11;
47810;PMS5003;33575;52.600;7.318;2023-07-02T03:17:06;11;10;
47810;PMS5003;33575;52.600;7.318;2023-07-02T03:19:36;10;9;
47810;PMS5003;33575;52.600;7.318;2023-07-02T03:22:07;14;12;
47810;PMS5003;33575;52.600;7.318;2023-07-02T03:24:37;10;9;
47810;PMS5003;33575;52.600;7.318;2023-07-02T03:27:08;7;7;
47810;PMS5003;33575;52.600;7.318;2023-07-02T03:29:39;12;10;
47810;PMS5003;33575;52.600;7.318;2023-07-02T03:32:09;10;10;
47810;PMS5003;33575;52.600;7.318;2023-07-02T03:34:40;11;8;
47810;PMS5003;33575;52.600;7.318;2023-07-02T03:37:11;14;11;
47810;PMS5003;33575;52.600;7.318;2023-07-02T03:39:41;14;12;
47810;PMS5003;33575;52.600;7.318;2023-07-02T03:42:11;11;10;
47810;PMS5003;33575;52.600;7.318;2023-07-02T03:44:42;12;10;
47810;PMS5003;33575;52.600;7.318;2023-07-02T03:47:12;14;10;
47810;PMS5003;33575;52.600;7.318;2023-07-02T03:49:42;14;13;
47810;PMS5003;33575;52.600;7.318;2023-07-02T03:52:14;14;11;
47810;PMS5003;33575;52.600;7.318;2023-07-02T03:54:43;19;17;
47810;PMS5003;33575;52.600;7.318;2023-07-02T03:57:13;12;12;
47810;PMS5003;33575;52.600;7.318;2023-07-02T03:59:44;16;13;
47810;PMS5003;33575;52.600;7.318;2023-07-02T04:02:15;12;11;
47810;PMS5003;33575;52.600;7.318;2023-07-02T04:04:45;11;9;
47810;PMS5003;33575;52.600;7.318;2023-07-02T04:07:15;14;12;
47810;PMS5003;33575;52.600;7.318;2023-07-02T04:09:45;19;16;
47810;PMS5003;33575;52.600;7.318;2023-07-02T04:12:16;16;12;
47810;PMS5003;33575;52.600;7.318;2023-07-02T04:14:46;14;13;
47810;PMS5003;33575;52.600;7.318;2023-07-02T04:17:16;11;10;
47810;PMS5003;33575;52.600;7.318;2023-07-02T04:19:47;13;12;
47810;PMS5003;33575;52.600;7.318;2023-07-02T04:22:17;10;8;
47810;PMS5003;33575;52.600;7.318;2023-07-02T04:24:49;16;14;
47810;PMS5003;33575;52.600;7.318;2023-07-02T04:27:23;12;9;
47810;PMS5003;33575;52.600;7.318;2023-07-02T04:29:48;17;14;
47810;PMS5003;33575;52.600;7.318;2023-07-02T04:32:18;9;9;
47810;PMS5003;33575;52.600;7.318;2023-07-02T04:34:49;9;9;
47810;PMS5003;33575;52.600;7.318;2023-07-02T04:37:19;16;14;
47810;PMS5003;33575;52.600;7.318;2023-07-02T04:39:50;15;12;
47810;PMS5003;33575;52.600;7.318;2023-07-02T04:42:20;13;10;
47810;PMS5003;33575;52.600;7.318;2023-07-02T04:44:51;13;10;
47810;PMS5003;33575;52.600;7.318;2023-07-02T04:47:21;11;11;
47810;PMS5003;33575;52.600;7.318;2023-07-02T04:49:51;13;10;
47810;PMS5003;33575;52.600;7.318;2023-07-02T04:52:22;17;14;
47810;PMS5003;33575;52.600;7.318;2023-07-02T04:54:52;12;11;
47810;PMS5003;33575;52.600;7.318;2023-07-02T04:57:22;15;11;
47810;PMS5003;33575;52.600;7.318;2023-07-02T04:59:52;10;10;
47810;PMS5003;33575;52.600;7.318;2023-07-02T05:02:22;13;12;
47810;PMS5003;33575;52.600;7.318;2023-07-02T05:04:53;13;10;
47810;PMS5003;33575;52.600;7.318;2023-07-02T05:07:23;15;13;
47810;PMS5003;33575;52.600;7.318;2023-07-02T05:09:53;9;8;
47810;PMS5003;33575;52.600;7.318;2023-07-02T05:12:23;11;10;
47810;PMS5003;33575;52.600;7.318;2023-07-02T05:14:54;13;12;
47810;PMS5003;33575;52.600;7.318;2023-07-02T05:17:24;17;14;
47810;PMS5003;33575;52.600;7.318;2023-07-02T05:19:54;13;12;
47810;PMS5003;33575;52.600;7.318;2023-07-02T05:22:24;14;11;
47810;PMS5003;33575;52.600;7.318;2023-07-02T05:24:55;17;15;
47810;PMS5003;33575;52.600;7.318;2023-07-02T05:27:25;14;12;
47810;PMS5003;33575;52.600;7.318;2023-07-02T05:29:56;17;16;
47810;PMS5003;33575;52.600;7.318;2023-07-02T05:32:26;16;12;
47810;PMS5003;33575;52.600;7.318;2023-07-02T05:34:56;18;13;
47810;PMS5003;33575;52.600;7.318;2023-07-02T05:37:27;14;12;
47810;PMS5003;33575;52.600;7.318;2023-07-02T05:39:57;15;12;
47810;PMS5003;33575;52.600;7.318;2023-07-02T05:42:28;11;11;
47810;PMS5003;33575;52.600;7.318;2023-07-02T05:44:58;19;14;
47810;PMS5003;33575;52.600;7.318;2023-07-02T05:47:31;13;12;
47810;PMS5003;33575;52.600;7.318;2023-07-02T05:49:59;14;12;
47810;PMS5003;33575;52.600;7.318;2023-07-02T05:52:29;20;16;
47810;PMS5003;33575;52.600;7.318;2023-07-02T05:54:59;17;15;
47810;PMS5003;33575;52.600;7.318;2023-07-02T05:57:30;13;12;
47810;PMS5003;33575;52.600;7.318;2023-07-02T06:00:00;16;14;
47810;PMS5003;33575;52.600;7.318;2023-07-02T06:02:31;11;10;
47810;PMS5003;33575;52.600;7.318;2023-07-02T06:05:01;10;10;
47810;PMS5003;33575;52.600;7.318;2023-07-02T06:07:31;19;15;
47810;PMS5003;33575;52.600;7.318;2023-07-02T06:10:02;12;11;
47810;PMS5003;33575;52.600;7.318;2023-07-02T06:12:32;13;12;
47810;PMS5003;33575;52.600;7.318;2023-07-02T06:15:02;17;12;
47810;PMS5003;33575;52.600;7.318;2023-07-02T06:17:37;16;14;
47810;PMS5003;33575;52.600;7.318;2023-07-02T06:20:04;17;15;
47810;PMS5003;33575;52.600;7.318;2023-07-02T06:22:34;16;12;
47810;PMS5003;33575;52.600;7.318;2023-07-02T06:25:06;17;12;
47810;PMS5003;33575;52.600;7.318;2023-07-02T06:27:35;19;15;
47810;PMS5003;33575;52.600;7.318;2023-07-02T06:30:05;15;12;
47810;PMS5003;33575;52.600;7.318;2023-07-02T06:32:35;16;14;
47810;PMS5003;33575;52.600;7.318;2023-07-02T06:35:06;21;16;
47810;PMS5003;33575;52.600;7.318;2023-07-02T06:37:36;11;11;
47810;PMS5003;33575;52.600;7.318;2023-07-02T06:40:07;14;9;
47810;PMS5003;33575;52.600;7.318;2023-07-02T06:42:37;13;12;
47810;PMS5003;33575;52.600;7.318;2023-07-02T06:45:08;14;11;
47810;PMS5003;33575;52.600;7.318;2023-07-02T06:47:38;12;11;
47810;PMS5003;33575;52.600;7.318;2023-07-02T06:50:08;12;11;
47810;PMS5003;33575;52.600;7.318;2023-07-02T06:52:39;14;13;
47810;PMS5003;33575;52.600;7.318;2023-07-02T06:55:09;19;15;
47810;PMS5003;33575;52.600;7.318;2023-07-02T06:57:43;12;10;
47810;PMS5003;33575;52.600;7.318;2023-07-02T07:00:09;16;13;
47810;PMS5003;33575;52.600;7.318;2023-07-02T07:02:41;14;12;
47810;PMS5003;33575;52.600;7.318;2023-07-02T07:05:10;14;11;
47810;PMS5003;33575;52.600;7.318;2023-07-02T07:07:40;15;12;
47810;PMS5003;33575;52.600;7.318;2023-07-02T07:10:10;13;13;
47810;PMS5003;33575;52.600;7.318;2023-07-02T07:12:40;14;11;
47810;PMS5003;33575;52.600;7.318;2023-07-02T07:15:10;18;12;
47810;PMS5003;33575;52.600;7.318;2023-07-02T07:17:41;15;11;
47810;PMS5003;33575;52.600;7.318;2023-07-02T07:20:11;10;9;
47810;PMS5003;33575;52.600;7.318;2023-07-02T07:22:41;13;12;
47810;PMS5003;33575;52.600;7.318;2023-07-02T07:25:11;13;13;
47810;PMS5003;33575;52.600;7.318;2023-07-02T07:27:42;11;10;
47810;PMS5003;33575;52.600;7.318;2023-07-02T07:30:12;17;17;
47810;PMS5003;33575;52.600;7.318;2023-07-02T07:32:42;17;14;
47810;PMS5003;33575;52.600;7.318;2023-07-02T07:35:12;14;12;
47810;PMS5003;33575;52.600;7.318;2023-07-02T07:37:43;9;9;
47810;PMS5003;33575;52.600;7.318;2023-07-02T07:40:13;15;14;
47810;PMS5003;33575;52.600;7.318;2023-07-02T07:42:43;14;13;
47810;PMS5003;33575;52.600;7.318;2023-07-02T07:45:13;13;10;
47810;PMS5003;33575;52.600;7.318;2023-07-02T07:47:43;14;12;
47810;PMS5003;33575;52.600;7.318;2023-07-02T07:50:13;11;11;
47810;PMS5003;33575;52.600;7.318;2023-07-02T07:52:43;15;13;
47810;PMS5003;33575;52.600;7.318;2023-07-02T07:55:13;14;13;
47810;PMS5003;33575;52.600;7.318;2023-07-02T07:57:43;15;11;
47810;PMS5003;33575;52.600;7.318;2023-07-02T08:00:15;12;10;
47810;PMS5003;33575;52.600;7.318;2023-07-02T08:02:44;16;12;
47810;PMS5003;33575;52.600;7.318;2023-07-02T08:05:15;14;13;
47810;PMS5003;33575;52.600;7.318;2023-07-02T08:07:45;16;13;
47810;PMS5003;33575;52.600;7.318;2023-07-02T08:10:15;13;11;
47810;PMS5003;33575;52.600;7.318;2023-07-02T08:12:45;13;11;
47810;PMS5003;33575;52.600;7.318;2023-07-02T08:15:15;11;10;
47810;PMS5003;33575;52.600;7.318;2023-07-02T08:17:46;13;12;
47810;PMS5003;33575;52.600;7.318;2023-07-02T08:20:16;15;13;
47810;PMS5003;33575;52.600;7.318;2023-07-02T08:22:46;19;17;
47810;PMS5003;33575;52.600;7.318;2023-07-02T08:25:17;13;11;
47810;PMS5003;33575;52.600;7.318;2023-07-02T08:27:47;15;13;
47810;PMS5003;33575;52.600;7.318;2023-07-02T08:30:17;15;13;
47810;PMS5003;33575;52.600;7.318;2023-07-02T08:32:47;14;11;
47810;PMS5003;33575;52.600;7.318;2023-07-02T08:35:17;13;12;
47810;PMS5003;33575;52.600;7.318;2023-07-02T08:37:48;11;10;
47810;PMS5003;33575;52.600;7.318;2023-07-02T08:40:19;17;14;
47810;PMS5003;33575;52.600;7.318;2023-07-02T08:42:48;15;15;
47810;PMS5003;33575;52.600;7.318;2023-07-02T08:45:19;14;13;
47810;PMS5003;33575;52.600;7.318;2023-07-02T08:47:49;13;12;
47810;PMS5003;33575;52.600;7.318;2023-07-02T08:50:19;16;14;
47810;PMS5003;33575;52.600;7.318;2023-07-02T08:52:50;14;14;
47810;PMS5003;33575;52.600;7.318;2023-07-02T08:55:20;9;8;
47810;PMS5003;33575;52.600;7.318;2023-07-02T08:57:52;13;11;
47810;PMS5003;33575;52.600;7.318;2023-07-02T09:00:21;12;12;
47810;PMS5003;33575;52.600;7.318;2023-07-02T09:02:52;16;15;
47810;PMS5003;33575;52.600;7.318;2023-07-02T09:05:22;8;8;
47810;PMS5003;33575;52.600;7.318;2023-07-02T09:07:55;11;9;
47810;PMS5003;33575;52.600;7.318;2023-07-02T09:10:26;10;8;
47810;PMS5003;33575;52.600;7.318;2023-07-02T09:15:23;10;9;
47810;PMS5003;33575;52.600;7.318;2023-07-02T09:17:53;12;9;
47810;PMS5003;33575;52.600;7.318;2023-07-02T09:20:32;10;9;
47810;PMS5003;33575;52.600;7.318;2023-07-02T09:22:54;13;10;
47810;PMS5003;33575;52.600;7.318;2023-07-02T09:27:54;11;9;
47810;PMS5003;33575;52.600;7.318;2023-07-02T09:30:25;7;7;
47810;PMS5003;33575;52.600;7.318;2023-07-02T09:32:55;8;8;
47810;PMS5003;33575;52.600;7.318;2023-07-02T09:35:26;14;12;
47810;PMS5003;33575;52.600;7.318;2023-07-02T09:37:56;10;7;
47810;PMS5003;33575;52.600;7.318;2023-07-02T09:40:26;9;8;
47810;PMS5003;33575;52.600;7.318;2023-07-02T09:42:57;9;7;
47810;PMS5003;33575;52.600;7.318;2023-07-02T09:45:27;8;8;
47810;PMS5003;33575;52.600;7.318;2023-07-02T09:47:58;8;8;
47810;PMS5003;33575;52.600;7.318;2023-07-02T09:50:28;7;6;
47810;PMS5003;33575;52.600;7.318;2023-07-02T09:52:58;8;8;
47810;PMS5003;33575;52.600;7.318;2023-07-02T09:55:28;10;10;
47810;PMS5003;33575;52.600;7.318;2023-07-02T09:57:59;8;7;
47810;PMS5003;33575;52.600;7.318;2023-07-02T10:00:29;7;6;
47810;PMS5003;33575;52.600;7.318;2023-07-02T10:02:59;8;7;
47810;PMS5003;33575;52.600;7.318;2023-07-02T10:05:30;9;8;
47810;PMS5003;33575;52.600;7.318;2023-07-02T10:10:31;11;10;
47810;PMS5003;33575;52.600;7.318;2023-07-02T10:13:01;8;8;
47810;PMS5003;33575;52.600;7.318;2023-07-02T10:15:35;12;8;
47810;PMS5003;33575;52.600;7.318;2023-07-02T10:18:03;10;9;
47810;PMS5003;33575;52.600;7.318;2023-07-02T10:20:34;9;7;
47810;PMS5003;33575;52.600;7.318;2023-07-02T10:23:03;6;6;
47810;PMS5003;33575;52.600;7.318;2023-07-02T10:25:34;8;8;
47810;PMS5003;33575;52.600;7.318;2023-07-02T10:30:35;12;10;
47810;PMS5003;33575;52.600;7.318;2023-07-02T10:33:06;10;8;
47810;PMS5003;33575;52.600;7.318;2023-07-02T10:35:35;8;8;
47810;PMS5003;33575;52.600;7.318;2023-07-02T10:38:13;9;7;
47810;PMS5003;33575;52.600;7.318;2023-07-02T10:40:36;8;7;
47810;PMS5003;33575;52.600;7.318;2023-07-02T10:43:06;10;7;
47810;PMS5003;33575;52.600;7.318;2023-07-02T10:45:36;10;8;
47810;PMS5003;33575;52.600;7.318;2023-07-02T10:48:08;8;7;
47810;PMS5003;33575;52.600;7.318;2023-07-02T10:50:38;8;7;
47810;PMS5003;33575;52.600;7.318;2023-07-02T10:55:39;6;6;
47810;PMS5003;33575;52.600;7.318;2023-07-02T10:58:09;9;7;
47810;PMS5003;33575;52.600;7.318;2023-07-02T11:00:43;6;5;
47810;PMS5003;33575;52.600;7.318;2023-07-02T11:05:40;5;5;
47810;PMS5003;33575;52.600;7.318;2023-07-02T11:08:10;5;5;
47810;PMS5003;33575;52.600;7.318;2023-07-02T11:10:41;5;4;
47810;PMS5003;33575;52.600;7.318;2023-07-02T11:13:11;6;5;
47810;PMS5003;33575;52.600;7.318;2023-07-02T11:15:41;6;6;
47810;PMS5003;33575;52.600;7.318;2023-07-02T11:18:12;6;5;
47810;PMS5003;33575;52.600;7.318;2023-07-02T11:20:43;6;6;
47810;PMS5003;33575;52.600;7.318;2023-07-02T11:25:42;6;4;
47810;PMS5003;33575;52.600;7.318;2023-07-02T11:28:13;8;8;
47810;PMS5003;33575;52.600;7.318;2023-07-02T11:30:45;6;6;
47810;PMS5003;33575;52.600;7.318;2023-07-02T11:33:13;6;6;
47810;PMS5003;33575;52.600;7.318;2023-07-02T11:35:44;7;7;
47810;PMS5003;33575;52.600;7.318;2023-07-02T11:38:14;9;8;
47810;PMS5003;33575;52.600;7.318;2023-07-02T11:40:45;9;8;
47810;PMS5003;33575;52.600;7.318;2023-07-02T11:43:15;8;7;
47810;PMS5003;33575;52.600;7.318;2023-07-02T11:45:46;6;6;
47810;PMS5003;33575;52.600;7.318;2023-07-02T11:48:16;4;4;
47810;PMS5003;33575;52.600;7.318;2023-07-02T11:50:46;8;7;
47810;PMS5003;33575;52.600;7.318;2023-07-02T11:53:17;6;5;
47810;PMS5003;33575;52.600;7.318;2023-07-02T11:55:48;7;7;
47810;PMS5003;33575;52.600;7.318;2023-07-02T11:58:18;6;5;
47810;PMS5003;33575;52.600;7.318;2023-07-02T12:00:47;8;8;
47810;PMS5003;33575;52.600;7.318;2023-07-02T12:03:18;5;4;
47810;PMS5003;33575;52.600;7.318;2023-07-02T12:05:49;6;5;
47810;PMS5003;33575;52.600;7.318;2023-07-02T12:08:18;7;7;
47810;PMS5003;33575;52.600;7.318;2023-07-02T12:10:49;6;5;
47810;PMS5003;33575;52.600;7.318;2023-07-02T12:13:19;8;6;
47810;PMS5003;33575;52.600;7.318;2023-07-02T12:15:50;9;6;
47810;PMS5003;33575;52.600;7.318;2023-07-02T12:18:19;6;6;
47810;PMS5003;33575;52.600;7.318;2023-07-02T12:20:50;5;4;
47810;PMS5003;33575;52.600;7.318;2023-07-02T12:23:20;5;5;
47810;PMS5003;33575;52.600;7.318;2023-07-02T12:25:51;8;7;
47810;PMS5003;33575;52.600;7.318;2023-07-02T12:28:21;6;5;
47810;PMS5003;33575;52.600;7.318;2023-07-02T12:30:51;8;8;
47810;PMS5003;33575;52.600;7.318;2023-07-02T12:33:21;6;5;
47810;PMS5003;33575;52.600;7.318;2023-07-02T12:35:52;9;7;
47810;PMS5003;33575;52.600;7.318;2023-07-02T12:38:22;9;6;
47810;PMS5003;33575;52.600;7.318;2023-07-02T12:40:53;6;6;
47810;PMS5003;33575;52.600;7.318;2023-07-02T12:43:23;8;6;
47810;PMS5003;33575;52.600;7.318;2023-07-02T12:45:53;12;8;
47810;PMS5003;33575;52.600;7.318;2023-07-02T12:48:23;7;6;
47810;PMS5003;33575;52.600;7.318;2023-07-02T12:50:54;31;30;
47810;PMS5003;33575;52.600;7.318;2023-07-02T12:53:25;5;5;
47810;PMS5003;33575;52.600;7.318;2023-07-02T12:55:54;5;5;
47810;PMS5003;33575;52.600;7.318;2023-07-02T12:58:25;8;6;
47810;PMS5003;33575;52.600;7.318;2023-07-02T13:00:55;7;5;
47810;PMS5003;33575;52.600;7.318;2023-07-02T13:03:25;8;5;
47810;PMS5003;33575;52.600;7.318;2023-07-02T13:05:56;9;5;
47810;PMS5003;33575;52.600;7.318;2023-07-02T13:08:26;4;4;
47810;PMS5003;33575;52.600;7.318;2023-07-02T13:10:56;7;7;
47810;PMS5003;33575;52.600;7.318;2023-07-02T13:13:30;8;7;
47810;PMS5003;33575;52.600;7.318;2023-07-02T13:15:57;4;4;
47810;PMS5003;33575;52.600;7.318;2023-07-02T13:18:27;5;5;
47810;PMS5003;33575;52.600;7.318;2023-07-02T13:20:57;5;5;
47810;PMS5003;33575;52.600;7.318;2023-07-02T13:23:28;10;8;
47810;PMS5003;33575;52.600;7.318;2023-07-02T13:25:58;33;33;
47810;PMS5003;33575;52.600;7.318;2023-07-02T13:28:28;39;39;
47810;PMS5003;33575;52.600;7.318;2023-07-02T13:30:58;10;10;
47810;PMS5003;33575;52.600;7.318;2023-07-02T13:33:28;9;9;
47810;PMS5003;33575;52.600;7.318;2023-07-02T13:35:58;12;12;
47810;PMS5003;33575;52.600;7.318;2023-07-02T13:38:29;24;22;
47810;PMS5003;33575;52.600;7.318;2023-07-02T13:40:59;36;35;
47810;PMS5003;33575;52.600;7.318;2023-07-02T13:43:30;15;14;
47810;PMS5003;33575;52.600;7.318;2023-07-02T13:46:01;19;19;
47810;PMS5003;33575;52.600;7.318;2023-07-02T13:48:31;10;10;
47810;PMS5003;33575;52.600;7.318;2023-07-02T13:51:01;9;8;
47810;PMS5003;33575;52.600;7.318;2023-07-02T13:53:32;6;4;
47810;PMS5003;33575;52.600;7.318;2023-07-02T13:56:02;5;5;
47810;PMS5003;33575;52.600;7.318;2023-07-02T14:01:03;6;6;
47810;PMS5003;33575;52.600;7.318;2023-07-02T14:03:33;7;5;
47810;PMS5003;33575;52.600;7.318;2023-07-02T14:06:03;9;7;
47810;PMS5003;33575;52.600;7.318;2023-07-02T14:08:33;8;8;
47810;PMS5003;33575;52.600;7.318;2023-07-02T14:11:04;7;6;
47810;PMS5003;33575;52.600;7.318;2023-07-02T14:13:34;4;4;
47810;PMS5003;33575;52.600;7.318;2023-07-02T14:16:04;6;5;
47810;PMS5003;33575;52.600;7.318;2023-07-02T14:18:34;6;5;
47810;PMS5003;33575;52.600;7.318;2023-07-02T14:21:05;5;5;
47810;PMS5003;33575;52.600;7.318;2023-07-02T14:23:35;9;8;
47810;PMS5003;33575;52.600;7.318;2023-07-02T14:26:05;10;7;
47810;PMS5003;33575;52.600;7.318;2023-07-02T14:28:35;9;7;
47810;PMS5003;33575;52.600;7.318;2023-07-02T14:31:06;5;4;
47810;PMS5003;33575;52.600;7.318;2023-07-02T14:33:36;8;8;
47810;PMS5003;33575;52.600;7.318;2023-07-02T14:36:06;6;6;
47810;PMS5003;33575;52.600;7.318;2023-07-02T14:38:37;6;6;
47810;PMS5003;33575;52.600;7.318;2023-07-02T14:41:07;7;6;
47810;PMS5003;33575;52.600;7.318;2023-07-02T14:43:37;5;4;
47810;PMS5003;33575;52.600;7.318;2023-07-02T14:46:07;7;7;
47810;PMS5003;33575;52.600;7.318;2023-07-02T14:48:38;10;7;
47810;PMS5003;33575;52.600;7.318;2023-07-02T14:51:08;4;4;
47810;PMS5003;33575;52.600;7.318;2023-07-02T14:53:38;8;7;
47810;PMS5003;33575;52.600;7.318;2023-07-02T14:56:08;4;4;
47810;PMS5003;33575;52.600;7.318;2023-07-02T14:58:39;7;6;
47810;PMS5003;33575;52.600;7.318;2023-07-02T15:01:09;8;6;
47810;PMS5003;33575;52.600;7.318;2023-07-02T15:03:39;8;6;
47810;PMS5003;33575;52.600;7.318;2023-07-02T15:06:10;6;6;
47810;PMS5003;33575;52.600;7.318;2023-07-02T15:08:40;23;23;
47810;PMS5003;33575;52.600;7.318;2023-07-02T15:11:11;8;7;
47810;PMS5003;33575;52.600;7.318;2023-07-02T15:13:40;6;5;
47810;PMS5003;33575;52.600;7.318;2023-07-02T15:16:11;5;3;
47810;PMS5003;33575;52.600;7.318;2023-07-02T15:18:41;6;6;
47810;PMS5003;33575;52.600;7.318;2023-07-02T15:21:11;8;8;
47810;PMS5003;33575;52.600;7.318;2023-07-02T15:23:41;6;6;
47810;PMS5003;33575;52.600;7.318;2023-07-02T15:26:12;7;7;
47810;PMS5003;33575;52.600;7.318;2023-07-02T15:28:42;4;4;
47810;PMS5003;33575;52.600;7.318;2023-07-02T15:31:12;5;5;
47810;PMS5003;33575;52.600;7.318;2023-07-02T15:33:42;6;6;
47810;PMS5003;33575;52.600;7.318;2023-07-02T15:36:13;7;6;
47810;PMS5003;33575;52.600;7.318;2023-07-02T15:38:43;7;6;
47810;PMS5003;33575;52.600;7.318;2023-07-02T15:41:14;7;6;
47810;PMS5003;33575;52.600;7.318;2023-07-02T15:43:44;6;5;
47810;PMS5003;33575;52.600;7.318;2023-07-02T15:46:14;9;6;
47810;PMS5003;33575;52.600;7.318;2023-07-02T15:48:44;5;5;
47810;PMS5003;33575;52.600;7.318;2023-07-02T15:51:14;8;5;
47810;PMS5003;33575;52.600;7.318;2023-07-02T15:53:44;27;27;
47810;PMS5003;33575;52.600;7.318;2023-07-02T15:56:15;29;28;
47810;PMS5003;33575;52.600;7.318;2023-07-02T15:58:45;9;8;
47810;PMS5003;33575;52.600;7.318;2023-07-02T16:01:16;22;21;
47810;PMS5003;33575;52.600;7.318;2023-07-02T16:03:47;20;19;
47810;PMS5003;33575;52.600;7.318;2023-07-02T16:06:17;25;24;
47810;PMS5003;33575;52.600;7.318;2023-07-02T16:08:47;26;26;
47810;PMS5003;33575;52.600;7.318;2023-07-02T16:11:17;28;27;
47810;PMS5003;33575;52.600;7.318;2023-07-02T16:13:48;41;41;
47810;PMS5003;33575;52.600;7.318;2023-07-02T16:16:18;91;90;
47810;PMS5003;33575;52.600;7.318;2023-07-02T16:18:48;78;77;
47810;PMS5003;33575;52.600;7.318;2023-07-02T16:21:19;73;73;
47810;PMS5003;33575;52.600;7.318;2023-07-02T16:23:50;40;40;
47810;PMS5003;33575;52.600;7.318;2023-07-02T16:26:20;49;49;
47810;PMS5003;33575;52.600;7.318;2023-07-02T16:28:51;87;87;
47810;PMS5003;33575;52.600;7.318;2023-07-02T16:31:22;31;31;
47810;PMS5003;33575;52.600;7.318;2023-07-02T16:33:52;92;92;
47810;PMS5003;33575;52.600;7.318;2023-07-02T16:36:22;69;67;
47810;PMS5003;33575;52.600;7.318;2023-07-02T16:38:52;120;118;
47810;PMS5003;33575;52.600;7.318;2023-07-02T16:41:23;65;64;
47810;PMS5003;33575;52.600;7.318;2023-07-02T16:43:53;38;38;
47810;PMS5003;33575;52.600;7.318;2023-07-02T16:46:24;38;38;
47810;PMS5003;33575;52.600;7.318;2023-07-02T16:48:54;35;34;
47810;PMS5003;33575;52.600;7.318;2023-07-02T16:51:25;20;20;
47810;PMS5003;33575;52.600;7.318;2023-07-02T16:53:56;19;19;
47810;PMS5003;33575;52.600;7.318;2023-07-02T16:56:26;17;14;
47810;PMS5003;33575;52.600;7.318;2023-07-02T16:58:57;5;4;
47810;PMS5003;33575;52.600;7.318;2023-07-02T17:01:27;6;6;
47810;PMS5003;33575;52.600;7.318;2023-07-02T17:03:57;6;5;
47810;PMS5003;33575;52.600;7.318;2023-07-02T17:06:27;8;7;
47810;PMS5003;33575;52.600;7.318;2023-07-02T17:11:28;8;7;
47810;PMS5003;33575;52.600;7.318;2023-07-02T17:13:58;5;5;
47810;PMS5003;33575;52.600;7.318;2023-07-02T17:16:28;7;5;
47810;PMS5003;33575;52.600;7.318;2023-07-02T17:18:59;6;6;
47810;PMS5003;33575;52.600;7.318;2023-07-02T17:21:29;7;6;